»·PEaware :: N23EF KSBA-KBUR

N23EF :: KSBA-KBUR

FLIGHT INFORMATION

Flight Status: Arrived
Operator: Privately registered:
United States
More flights under this callsign
Pilot: John M. (23153)
Aircraft: CESSNA 172 SKYHAWK
(C172)
More flights by this aircraft type
Origin: KSBA Santa Barbara Mun
United States
Destination: KBUR Bob Hope-Burbank
United States
More flights between these airports :: More routes between these airports
Route: +
File this flight plan on PilotEdge
Remarks: CAT 7
Altitude:
(Current/Filed)
4,500ft
Speed:
(Current/Filed)
0kts
Departed: 04-Feb-19 05:54 PM
Arrived: 04-Feb-19 06:53 PM
Distance/Time
Traveled:
75nm/0:58
Distance/Time
To Go:
Arrived

Flight Plot

Page will automatically refresh every two minutes.


Map Options




Map Legend


Flown Route
Filed Route
Departure Airport
Arrival Airport
Navaid (VOR, NDB)
Fix

Horizontal Profiles

Position Reports

Time Latitude Longitude Heading Altitude Ground
Speed
04-Feb-19 17:45 34.422664 -119.835593 340 10ft 0kts
04-Feb-19 17:46 34.422664 -119.835593 340 10ft 0kts
04-Feb-19 17:47 34.422664 -119.835593 340 10ft 0kts
04-Feb-19 17:48 34.422664 -119.835593 340 10ft 0kts
04-Feb-19 17:49 34.422896 -119.837089 288 12ft 0kts
04-Feb-19 17:50 34.426575 -119.838325 354 11ft 16kts
04-Feb-19 17:51 34.427075 -119.835081 16 10ft 0kts
04-Feb-19 17:52 34.427898 -119.835435 270 10ft 3kts
04-Feb-19 17:53 34.427595 -119.844130 263 204ft 74kts
04-Feb-19 17:54 34.427816 -119.855077 275 660ft 71kts
04-Feb-19 17:56 34.415841 -119.863522 150 1576ft 74kts
04-Feb-19 17:57 34.398861 -119.842915 133 2320ft 95kts
04-Feb-19 17:58 34.422664 -119.835593 340 10ft 0kts
04-Feb-19 17:59 34.422664 -119.835593 340 10ft 0kts
04-Feb-19 18:00 34.422664 -119.835593 340 10ft 0kts
04-Feb-19 18:01 34.422664 -119.835593 340 10ft 0kts
04-Feb-19 18:02 34.422664 -119.835593 340 10ft 0kts
04-Feb-19 18:03 34.422664 -119.835593 340 10ft 0kts
04-Feb-19 18:04 34.422714 -119.835627 313 10ft 6kts
04-Feb-19 18:05 34.426730 -119.837054 87 10ft 22kts
04-Feb-19 18:06 34.427065 -119.834718 21 10ft 0kts
04-Feb-19 18:07 34.427791 -119.839632 268 31ft 71kts
04-Feb-19 18:08 34.427172 -119.864577 267 1012ft 74kts
04-Feb-19 18:09 34.426501 -119.897568 268 1254ft 107kts
04-Feb-19 18:10 34.412271 -119.921665 156 1321ft 111kts
04-Feb-19 18:11 34.389273 -119.896921 137 1211ft 119kts
04-Feb-19 18:12 34.374093 -119.880334 136 1116ft 115kts
04-Feb-19 18:13 34.362598 -119.846880 86 868ft 118kts
04-Feb-19 18:14 34.374181 -119.815039 58 1531ft 96kts
04-Feb-19 18:15 34.386793 -119.779581 71 1624ft 130kts
04-Feb-19 18:16 34.397193 -119.741982 71 2310ft 109kts
04-Feb-19 18:16 34.410450 -119.717801 75 2952ft 102kts
04-Feb-19 18:17 34.409649 -119.684452 97 3788ft 97kts
04-Feb-19 18:19 34.404648 -119.647867 99 4828ft 91kts
04-Feb-19 18:19 34.401077 -119.623300 99 5567ft 86kts
04-Feb-19 18:20 34.396521 -119.592352 99 5845ft 128kts
04-Feb-19 18:21 34.389805 -119.547429 99 5614ft 124kts
04-Feb-19 18:22 34.384230 -119.509804 99 5629ft 107kts
04-Feb-19 18:23 34.379019 -119.474587 99 5631ft 105kts
04-Feb-19 18:24 34.373863 -119.439839 99 5631ft 104kts
04-Feb-19 18:25 34.368694 -119.405091 99 5631ft 104kts
04-Feb-19 18:26 34.363524 -119.370403 99 5631ft 104kts
04-Feb-19 18:27 34.358349 -119.335755 100 5631ft 104kts
04-Feb-19 18:28 34.353156 -119.301058 100 5631ft 104kts
04-Feb-19 18:29 34.348348 -119.264689 95 5642ft 120kts
04-Feb-19 18:30 34.346198 -119.222580 95 5632ft 127kts
04-Feb-19 18:31 34.341482 -119.180192 99 5631ft 127kts
04-Feb-19 18:32 34.335515 -119.138026 100 5631ft 127kts
04-Feb-19 18:33 34.329253 -119.095955 100 5631ft 127kts
04-Feb-19 18:34 34.322891 -119.053782 100 5631ft 127kts
04-Feb-19 18:35 34.316519 -119.011659 100 5631ft 127kts
04-Feb-19 18:36 34.310184 -118.969556 100 5631ft 127kts
04-Feb-19 18:37 34.303895 -118.927522 100 5631ft 127kts
04-Feb-19 18:38 34.297628 -118.885394 99 5630ft 127kts
04-Feb-19 18:39 34.291398 -118.843270 99 5630ft 127kts
04-Feb-19 18:40 34.285202 -118.801128 99 5631ft 127kts
04-Feb-19 18:41 34.279049 -118.759039 99 5631ft 127kts
04-Feb-19 18:42 34.272912 -118.716809 99 5631ft 127kts
04-Feb-19 18:43 34.266783 -118.674391 99 5508ft 134kts
04-Feb-19 18:44 34.260253 -118.629004 99 5209ft 135kts
04-Feb-19 18:45 34.253781 -118.583743 99 4915ft 136kts
04-Feb-19 18:46 34.247366 -118.538648 99 4629ft 134kts
04-Feb-19 18:47 34.241108 -118.494815 99 4092ft 133kts
04-Feb-19 18:48 34.234872 -118.450976 99 3507ft 130kts
04-Feb-19 18:49 34.228736 -118.408716 99 2802ft 123kts
04-Feb-19 18:50 34.226164 -118.371589 100 1739ft 87kts
04-Feb-19 18:51 34.204835 -118.358440 168 752ft 63kts
04-Feb-19 18:52 34.198828 -118.355816 87 708ft 0kts
04-Feb-19 18:53 34.198829 -118.356336 270 710ft 30kts
04-Feb-19 18:54 34.199037 -118.360129 302 719ft 24kts
04-Feb-19 18:55 34.199554 -118.360590 195 722ft 0kts
04-Feb-19 18:56 34.199554 -118.360590 195 722ft 0kts

Navigation Log

Ident Type
Flight plan parsing failed, navigation log unavailable